Hanjin Buchanan — 3FHB4 — position and weather

sailwx.info

Track history (hours):
 
Tides and Currents Weather Stations Pressure Air Temp Water Temp Dewpoint Dewpoint Depression Visibility Wind Speed Wind Dir Waves Ship Positions

Hanjin Buchanan

Last reported at 2015-May-06 17:19 UTC. Time now 2015-May-06 20:32 UTC.
Position N 35°34' W 007°11'.

Length 255 m; draft 7.7 m.

Type: Cargo ship. MMSI: 357568000.

Date/timePositionNaut miles runAvg speedWind from/ knotsBaromVisibWave heightAir tempDewpointWater temp
2015-May-06 17:19N 35°34' W 007°11'88 3.3
2015-May-05 14:25N 36°00' W 005°28'7 8.3
2015-May-05 13:33N 36°06' W 005°23'2 1.1
2015-May-05 12:04N 36°08' W 005°23'0 0.1
2015-May-05 11:31N 36°08' W 005°23'0 0.0
2015-May-05 10:25N 36°08' W 005°23'0 0.0
2015-May-05 08:28N 36°08' W 005°23'0 0.1
2015-May-05 05:22N 36°08' W 005°23'0 0.0
2015-May-05 04:04N 36°08' W 005°23'0 0.4
2015-May-05 03:29N 36°08' W 005°23'4 4.0
2015-May-05 02:33N 36°05' W 005°20'7 7.0
2015-May-05 01:33N 36°03' W 005°11'  
2015-May-01 13:08N 36°14' W 003°47'813.0
2015-May-01 12:33N 36°15' W 003°37'1313.0
2015-May-01 11:32N 36°17' W 003°21'1312.6
2015-May-01 10:32N 36°18' W 003°05'1212.8
2015-May-01 09:33N 36°20' W 002°50'1312.9
2015-May-01 08:33N 36°22' W 002°34'1313.1
2015-May-01 07:33N 36°25' W 002°18'1413.5
2015-May-01 06:33N 36°27' W 002°02'1413.1
2015-May-01 05:31N 36°30' W 001°45'1313.1
2015-May-01 04:33N 36°33' W 001°30'1413.2
2015-May-01 03:28N 36°36' W 001°13'1213.2
2015-May-01 02:33N 36°39' W 000°58'1313.0
2015-May-01 01:33N 36°41' W 000°42'1512.9
2015-May-01 00:24N 36°44' W 000°24'1312.9
2015-Apr-30 23:23N 36°47' W 000°08'1113.0
2015-Apr-30 22:34N 36°50' E 000°05'1313.2
2015-Apr-30 21:34N 36°52' E 000°21'1313.3
2015-Apr-30 20:33N 36°55' E 000°38'1513.0
2015-Apr-30 19:26N 36°58' E 000°55'1112.9
2015-Apr-30 18:33N 37°01' E 001°09'1313.2
2015-Apr-30 17:33N 37°04' E 001°26'1413.4
2015-Apr-30 16:32N 37°07' E 001°42'2613.1
2015-Apr-30 14:33N 37°12' E 002°14'1412.7
2015-Apr-30 13:25N 37°15' E 002°32'1112.8
2015-Apr-30 12:33N 37°18' E 002°45'1512.8
2015-Apr-30 11:20N 37°20' E 003°04'2312.6
2015-Apr-30 09:33N 37°22' E 003°33'1412.6
2015-Apr-30 08:28N 37°23' E 003°50'1213.1
2015-Apr-30 07:33N 37°23' E 004°05'45812.0
2015-Apr-28 17:15N 36°33' E 013°35'911.7
2015-Apr-28 16:28N 36°29' E 013°45'1511.6
2015-Apr-28 15:13N 36°24' E 014°02'811.9
2015-Apr-28 14:33N 36°21' E 014°11'1211.9
2015-Apr-28 13:33N 36°17' E 014°25'1211.9
2015-Apr-28 12:33N 36°12' E 014°39'  
Track history (hours):
 
Tides and Currents Weather Stations Pressure Air Temp Water Temp Dewpoint Dewpoint Depression Visibility Wind Speed Wind Dir Waves Ship Positions

Hanjin Buchanan

Last reported at 2015-May-06 17:19 UTC. Time now 2015-May-06 20:32 UTC.
Position N 35°34' W 007°11'.

Length 255 m; draft 7.7 m.

Type: Cargo ship. MMSI: 357568000.

Date/timePositionNaut miles runAvg speedWind from/ knotsBaromVisibWave heightAir tempDewpointWater temp
2015-May-06 17:19N 35°34' W 007°11'88 3.3
2015-May-05 14:25N 36°00' W 005°28'7 8.3
2015-May-05 13:33N 36°06' W 005°23'2 1.1
2015-May-05 12:04N 36°08' W 005°23'0 0.1
2015-May-05 11:31N 36°08' W 005°23'0 0.0
2015-May-05 10:25N 36°08' W 005°23'0 0.0
2015-May-05 08:28N 36°08' W 005°23'0 0.1
2015-May-05 05:22N 36°08' W 005°23'0 0.0
2015-May-05 04:04N 36°08' W 005°23'0 0.4
2015-May-05 03:29N 36°08' W 005°23'4 4.0
2015-May-05 02:33N 36°05' W 005°20'7 7.0
2015-May-05 01:33N 36°03' W 005°11'  
2015-May-01 13:08N 36°14' W 003°47'813.0
2015-May-01 12:33N 36°15' W 003°37'1313.0
2015-May-01 11:32N 36°17' W 003°21'1312.6
2015-May-01 10:32N 36°18' W 003°05'1212.8
2015-May-01 09:33N 36°20' W 002°50'1312.9
2015-May-01 08:33N 36°22' W 002°34'1313.1
2015-May-01 07:33N 36°25' W 002°18'1413.5
2015-May-01 06:33N 36°27' W 002°02'1413.1
2015-May-01 05:31N 36°30' W 001°45'1313.1
2015-May-01 04:33N 36°33' W 001°30'1413.2
2015-May-01 03:28N 36°36' W 001°13'1213.2
2015-May-01 02:33N 36°39' W 000°58'1313.0
2015-May-01 01:33N 36°41' W 000°42'1512.9
2015-May-01 00:24N 36°44' W 000°24'1312.9
2015-Apr-30 23:23N 36°47' W 000°08'1113.0
2015-Apr-30 22:34N 36°50' E 000°05'1313.2
2015-Apr-30 21:34N 36°52' E 000°21'1313.3
2015-Apr-30 20:33N 36°55' E 000°38'1513.0
2015-Apr-30 19:26N 36°58' E 000°55'1112.9
2015-Apr-30 18:33N 37°01' E 001°09'1313.2
2015-Apr-30 17:33N 37°04' E 001°26'1413.4
2015-Apr-30 16:32N 37°07' E 001°42'2613.1
2015-Apr-30 14:33N 37°12' E 002°14'1412.7
2015-Apr-30 13:25N 37°15' E 002°32'1112.8
2015-Apr-30 12:33N 37°18' E 002°45'1512.8
2015-Apr-30 11:20N 37°20' E 003°04'2312.6
2015-Apr-30 09:33N 37°22' E 003°33'1412.6
2015-Apr-30 08:28N 37°23' E 003°50'1213.1
2015-Apr-30 07:33N 37°23' E 004°05'45812.0
2015-Apr-28 17:15N 36°33' E 013°35'911.7
2015-Apr-28 16:28N 36°29' E 013°45'1511.6
2015-Apr-28 15:13N 36°24' E 014°02'811.9
2015-Apr-28 14:33N 36°21' E 014°11'1211.9
2015-Apr-28 13:33N 36°17' E 014°25'1211.9
2015-Apr-28 12:33N 36°12' E 014°39'  

Dump ship's entire track history